www.cux-wetter.de
Wetterdaten: Sonntag, 23.12.2007
Datum Zeit Temp. A. Feuchte A. Luftdruck Regen Wind Richtung Richtung Sonnenschein Solar Taupunkt Windchill Windben
23.12.2007 00:04 -2,2 C 95 % 1022,5 hPa 0,0 l/m 0,0 km/h (0 Bft) N 360 0 min 0 W/m -2,9 C -2,2 C 0,0 km/h (0 Bft)
23.12.2007 00:09 -2,2 C 95 % 1022,5 hPa 0,0 l/m 0,0 km/h (0 Bft) N 360 0 min 0 W/m -2,9 C -2,2 C 0,0 km/h (0 Bft)
23.12.2007 00:14 -2,2 C 95 % 1022,5 hPa 0,0 l/m 0,0 km/h (0 Bft) N 360 0 min 0 W/m -2,9 C -2,2 C 0,0 km/h (0 Bft)
23.12.2007 00:19 -2,2 C 95 % 1022,5 hPa 0,0 l/m 0,0 km/h (0 Bft) N 360 0 min 0 W/m -2,9 C -2,2 C 0,0 km/h (0 Bft)
23.12.2007 00:24 -2,2 C 95 % 1022,5 hPa 0,0 l/m 0,0 km/h (0 Bft) N 360 0 min 0 W/m -2,9 C -2,2 C 0,0 km/h (0 Bft)
23.12.2007 00:29 -2,2 C 95 % 1022,5 hPa 0,0 l/m 0,0 km/h (0 Bft) N 360 0 min 0 W/m -2,9 C -2,2 C 0,0 km/h (0 Bft)
23.12.2007 00:34 -2,2 C 95 % 1022,5 hPa 0,0 l/m 0,0 km/h (0 Bft) N 360 0 min 0 W/m -2,9 C -2,2 C 0,0 km/h (0 Bft)
23.12.2007 00:39 -2,3 C 95 % 1022,5 hPa 0,0 l/m 0,0 km/h (0 Bft) N 360 0 min 0 W/m -3,0 C -2,3 C 0,0 km/h (0 Bft)
23.12.2007 00:44 -2,3 C 95 % 1022,5 hPa 0,0 l/m 0,0 km/h (0 Bft) N 360 0 min 0 W/m -3,0 C -2,3 C 0,0 km/h (0 Bft)
23.12.2007 00:49 -2,3 C 95 % 1022,5 hPa 0,0 l/m 0,0 km/h (0 Bft) N 360 0 min 0 W/m -3,0 C -2,3 C 0,0 km/h (0 Bft)
23.12.2007 00:54 -2,2 C 95 % 1022,5 hPa 0,0 l/m 0,0 km/h (0 Bft) N 360 0 min 0 W/m -2,9 C -2,2 C 0,0 km/h (0 Bft)
23.12.2007 00:59 -2,2 C 95 % 1022,5 hPa 0,0 l/m 7,1 km/h (2 Bft) W-SW 255 0 min 0 W/m -2,9 C -3,0 C 7,1 km/h (2 Bft)
23.12.2007 01:04 -2,1 C 95 % 1022,5 hPa 0,0 l/m 6,5 km/h (2 Bft) W-SW 245 0 min 0 W/m -2,8 C -2,2 C 6,5 km/h (2 Bft)
23.12.2007 01:09 -2,2 C 95 % 1022,5 hPa 0,0 l/m 4,7 km/h (1 Bft) SW 225 0 min 0 W/m -2,9 C -2,2 C 4,7 km/h (1 Bft)
23.12.2007 01:14 -2,2 C 95 % 1022,5 hPa 0,0 l/m 4,0 km/h (1 Bft) SW 230 0 min 0 W/m -2,9 C -2,2 C 4,0 km/h (1 Bft)
23.12.2007 01:19 -2,2 C 95 % 1022,5 hPa 0,0 l/m 5,7 km/h (2 Bft) SW 230 0 min 0 W/m -2,9 C -2,2 C 5,7 km/h (2 Bft)
23.12.2007 01:24 -2,2 C 95 % 1022,5 hPa 0,0 l/m 5,2 km/h (1 Bft) SW 220 0 min 0 W/m -2,9 C -2,2 C 5,2 km/h (1 Bft)
23.12.2007 01:29 -2,2 C 95 % 1022,5 hPa 0,0 l/m 4,1 km/h (1 Bft) SW 235 0 min 0 W/m -2,9 C -2,2 C 4,1 km/h (1 Bft)
23.12.2007 01:34 -2,3 C 95 % 1022,5 hPa 0,0 l/m 5,2 km/h (1 Bft) SW 230 0 min 0 W/m -3,0 C -2,3 C 5,2 km/h (1 Bft)
23.12.2007 01:39 -2,3 C 95 % 1022,5 hPa 0,0 l/m 3,6 km/h (1 Bft) SW 230 0 min 0 W/m -3,0 C -2,3 C 3,6 km/h (1 Bft)
23.12.2007 01:44 -2,4 C 95 % 1022,5 hPa 0,0 l/m 4,0 km/h (1 Bft) SW 230 0 min 0 W/m -3,1 C -2,4 C 4,0 km/h (1 Bft)
23.12.2007 01:49 -2,4 C 95 % 1022,5 hPa 0,0 l/m 4,5 km/h (1 Bft) SW 215 0 min 0 W/m -3,1 C -2,4 C 4,5 km/h (1 Bft)
23.12.2007 01:54 -2,4 C 95 % 1022,5 hPa 0,0 l/m 3,7 km/h (1 Bft) SW 230 0 min 0 W/m -3,1 C -2,4 C 3,7 km/h (1 Bft)
23.12.2007 01:59 -2,4 C 95 % 1022,5 hPa 0,0 l/m 4,0 km/h (1 Bft) SW 215 0 min 0 W/m -3,1 C -2,4 C 4,0 km/h (1 Bft)
23.12.2007 02:04 -2,3 C 95 % 1022,5 hPa 0,0 l/m 7,7 km/h (2 Bft) SW 235 0 min 0 W/m -3,0 C -3,7 C 7,7 km/h (2 Bft)
23.12.2007 02:09 -2,2 C 95 % 1022,5 hPa 0,0 l/m 6,3 km/h (2 Bft) SW 235 0 min 0 W/m -2,9 C -2,2 C 6,3 km/h (2 Bft)
23.12.2007 02:14 -2,2 C 95 % 1022,5 hPa 0,0 l/m 7,6 km/h (2 Bft) SW 225 0 min 0 W/m -2,9 C -3,5 C 7,6 km/h (2 Bft)
23.12.2007 02:19 -2,2 C 95 % 1022,5 hPa 0,0 l/m 9,3 km/h (2 Bft) W-SW 245 0 min 0 W/m -2,9 C -5,2 C 9,3 km/h (2 Bft)
23.12.2007 02:23 -1,9 C 96 % 1022,5 hPa 0,0 l/m 9,6 km/h (2 Bft) W-SW 245 0 min 0 W/m -2,5 C -5,2 C 9,6 km/h (2 Bft)
23.12.2007 02:29 -1,8 C 96 % 1022,5 hPa 0,0 l/m 10,3 km/h (2 Bft) W-SW 245 0 min 0 W/m -2,4 C -5,7 C 10,3 km/h (2 Bft)
23.12.2007 02:34 -1,7 C 95 % 1022,5 hPa 0,0 l/m 8,1 km/h (2 Bft) SW 235 0 min 0 W/m -2,4 C -3,5 C 8,1 km/h (2 Bft)
23.12.2007 02:39 -1,7 C 95 % 1022,5 hPa 0,0 l/m 4,8 km/h (1 Bft) SW 230 0 min 0 W/m -2,4 C -1,7 C 4,8 km/h (1 Bft)
23.12.2007 02:44 -1,8 C 95 % 1021,5 hPa 0,0 l/m 8,8 km/h (2 Bft) W-SW 240 0 min 0 W/m -2,5 C -4,3 C 8,8 km/h (2 Bft)
23.12.2007 02:49 -1,7 C 95 % 1021,5 hPa 0,0 l/m 10,0 km/h (2 Bft) W-SW 245 0 min 0 W/m -2,4 C -5,3 C 10,0 km/h (2 Bft)
23.12.2007 02:54 -1,6 C 95 % 1022,5 hPa 0,0 l/m 10,0 km/h (2 Bft) W-SW 245 0 min 0 W/m -2,3 C -5,2 C 10,0 km/h (2 Bft)
23.12.2007 02:59 -1,5 C 95 % 1021,5 hPa 0,0 l/m 10,6 km/h (2 Bft) W-SW 245 0 min 0 W/m -2,2 C -5,6 C 10,6 km/h (2 Bft)
23.12.2007 03:04 -1,5 C 95 % 1021,5 hPa 0,0 l/m 10,6 km/h (2 Bft) W-SW 245 0 min 0 W/m -2,2 C -5,6 C 10,6 km/h (2 Bft)
23.12.2007 03:09 -1,5 C 95 % 1021,5 hPa 0,0 l/m 10,7 km/h (2 Bft) W-SW 245 0 min 0 W/m -2,2 C -5,7 C 10,7 km/h (2 Bft)
23.12.2007 03:14 -1,4 C 95 % 1021,5 hPa 0,0 l/m 8,5 km/h (2 Bft) SW 230 0 min 0 W/m -2,1 C -3,6 C 8,5 km/h (2 Bft)
23.12.2007 03:19 -1,4 C 95 % 1021,5 hPa 0,0 l/m 5,2 km/h (1 Bft) W-SW 240 0 min 0 W/m -2,1 C -1,4 C 5,2 km/h (1 Bft)
23.12.2007 03:24 -1,4 C 95 % 1021,5 hPa 0,0 l/m 10,6 km/h (2 Bft) SW 235 0 min 0 W/m -2,1 C -5,5 C 10,6 km/h (2 Bft)
23.12.2007 03:29 -1,4 C 95 % 1021,5 hPa 0,0 l/m 6,0 km/h (2 Bft) W-SW 240 0 min 0 W/m -2,1 C -1,4 C 6,0 km/h (2 Bft)
23.12.2007 03:34 -1,4 C 95 % 1021,5 hPa 0,0 l/m 6,0 km/h (2 Bft) W-SW 240 0 min 0 W/m -2,1 C -1,4 C 6,0 km/h (2 Bft)
23.12.2007 03:39 -1,4 C 94 % 1021,5 hPa 0,0 l/m 6,0 km/h (2 Bft) W-SW 240 0 min 0 W/m -2,2 C -1,4 C 6,0 km/h (2 Bft)
23.12.2007 03:44 -1,4 C 95 % 1021,5 hPa 0,0 l/m 8,8 km/h (2 Bft) W-SW 240 0 min 0 W/m -2,1 C -3,9 C 8,8 km/h (2 Bft)
23.12.2007 03:49 -1,4 C 94 % 1021,5 hPa 0,0 l/m 8,2 km/h (2 Bft) SW 230 0 min 0 W/m -2,2 C -3,3 C 8,2 km/h (2 Bft)
23.12.2007 03:54 -1,5 C 94 % 1021,5 hPa 0,0 l/m 6,3 km/h (2 Bft) W-SW 240 0 min 0 W/m -2,3 C -1,5 C 6,3 km/h (2 Bft)
23.12.2007 03:59 -1,5 C 94 % 1021,5 hPa 0,0 l/m 8,9 km/h (2 Bft) W-SW 245 0 min 0 W/m -2,3 C -4,1 C 8,9 km/h (2 Bft)
23.12.2007 04:04 -1,5 C 94 % 1021,5 hPa 0,0 l/m 8,9 km/h (2 Bft) W-SW 245 0 min 0 W/m -2,3 C -4,1 C 8,9 km/h (2 Bft)
23.12.2007 04:09 -1,5 C 94 % 1021,5 hPa 0,0 l/m 7,6 km/h (2 Bft) W-SW 240 0 min 0 W/m -2,3 C -2,8 C 7,6 km/h (2 Bft)
23.12.2007 04:14 -1,4 C 94 % 1021,5 hPa 0,0 l/m 13,4 km/h (3 Bft) W-SW 250 0 min 0 W/m -2,2 C -7,6 C 13,4 km/h (3 Bft)
23.12.2007 04:19 -1,4 C 94 % 1021,5 hPa 0,0 l/m 10,5 km/h (2 Bft) W-SW 250 0 min 0 W/m -2,2 C -5,4 C 10,5 km/h (2 Bft)
23.12.2007 04:24 -1,4 C 94 % 1021,5 hPa 0,0 l/m 12,5 km/h (2 Bft) W-SW 250 0 min 0 W/m -2,2 C -7,0 C 12,5 km/h (2 Bft)
23.12.2007 04:29 -1,3 C 94 % 1021,5 hPa 0,0 l/m 12,8 km/h (3 Bft) W-SW 245 0 min 0 W/m -2,1 C -7,1 C 12,8 km/h (3 Bft)
23.12.2007 04:34 -1,3 C 93 % 1021,5 hPa 0,0 l/m 12,0 km/h (2 Bft) W-SW 255 0 min 0 W/m -2,3 C -6,5 C 12,0 km/h (2 Bft)
23.12.2007 04:39 -1,3 C 93 % 1021,5 hPa 0,0 l/m 11,1 km/h (2 Bft) W-SW 245 0 min 0 W/m -2,3 C -5,8 C 11,1 km/h (2 Bft)
23.12.2007 04:44 -1,3 C 93 % 1021,5 hPa 0,0 l/m 12,5 km/h (2 Bft) W-SW 245 0 min 0 W/m -2,3 C -6,9 C 12,5 km/h (2 Bft)
23.12.2007 04:49 -1,4 C 93 % 1021,5 hPa 0,0 l/m 9,6 km/h (2 Bft) SW 235 0 min 0 W/m -2,4 C -4,6 C 9,6 km/h (2 Bft)
23.12.2007 04:54 -1,4 C 93 % 1021,5 hPa 0,0 l/m 12,3 km/h (2 Bft) W-SW 240 0 min 0 W/m -2,4 C -6,8 C 12,3 km/h (2 Bft)
23.12.2007 04:59 -1,2 C 94 % 1021,5 hPa 0,0 l/m 10,0 km/h (2 Bft) W-SW 245 0 min 0 W/m -2,0 C -4,8 C 10,0 km/h (2 Bft)
23.12.2007 05:04 -1,2 C 94 % 1021,5 hPa 0,0 l/m 10,0 km/h (2 Bft) W-SW 245 0 min 0 W/m -2,0 C -4,8 C 10,0 km/h (2 Bft)
23.12.2007 05:09 -1,1 C 94 % 1021,5 hPa 0,0 l/m 9,1 km/h (2 Bft) W-SW 245 0 min 0 W/m -1,9 C -3,9 C 9,1 km/h (2 Bft)
23.12.2007 05:14 -1,1 C 93 % 1021,5 hPa 0,0 l/m 9,6 km/h (2 Bft) W-SW 240 0 min 0 W/m -2,1 C -4,3 C 9,6 km/h (2 Bft)
23.12.2007 05:19 -1,2 C 93 % 1021,5 hPa 0,0 l/m 9,6 km/h (2 Bft) W-SW 240 0 min 0 W/m -2,2 C -4,4 C 9,6 km/h (2 Bft)
23.12.2007 05:24 -1,2 C 93 % 1021,5 hPa 0,0 l/m 9,8 km/h (2 Bft) SW 235 0 min 0 W/m -2,2 C -4,6 C 9,8 km/h (2 Bft)
23.12.2007 05:29 -1,1 C 94 % 1021,5 hPa 0,0 l/m 13,9 km/h (3 Bft) SW 235 0 min 0 W/m -1,9 C -7,6 C 13,9 km/h (3 Bft)
23.12.2007 05:34 -1,0 C 94 % 1021,5 hPa 0,0 l/m 13,9 km/h (3 Bft) SW 235 0 min 0 W/m -1,8 C -7,5 C 13,9 km/h (3 Bft)
23.12.2007 05:39 -0,9 C 94 % 1021,5 hPa 0,0 l/m 12,5 km/h (2 Bft) W-SW 245 0 min 0 W/m -1,7 C -6,4 C 12,5 km/h (2 Bft)
23.12.2007 05:44 -0,8 C 94 % 1021,5 hPa 0,0 l/m 8,9 km/h (2 Bft) W-SW 240 0 min 0 W/m -1,6 C -3,4 C 8,9 km/h (2 Bft)
23.12.2007 05:49 -0,6 C 94 % 1021,5 hPa 0,0 l/m 9,7 km/h (2 Bft) W-SW 250 0 min 0 W/m -1,4 C -3,9 C 9,7 km/h (2 Bft)
23.12.2007 05:54 -0,6 C 94 % 1021,5 hPa 0,0 l/m 10,1 km/h (2 Bft) W-SW 245 0 min 0 W/m -1,4 C -4,2 C 10,1 km/h (2 Bft)
23.12.2007 05:59 -0,5 C 94 % 1021,5 hPa 0,0 l/m 11,1 km/h (2 Bft) W-SW 245 0 min 0 W/m -1,3 C -4,9 C 11,1 km/h (2 Bft)
23.12.2007 06:04 -0,4 C 94 % 1021,5 hPa 0,0 l/m 11,1 km/h (2 Bft) W-SW 245 0 min 0 W/m -1,2 C -4,8 C 11,1 km/h (2 Bft)
23.12.2007 06:09 -0,3 C 94 % 1021,5 hPa 0,0 l/m 11,1 km/h (2 Bft) W-SW 245 0 min 0 W/m -1,1 C -4,7 C 11,1 km/h (2 Bft)
23.12.2007 06:14 -0,2 C 95 % 1021,5 hPa 0,0 l/m 11,1 km/h (2 Bft) W-SW 245 0 min 0 W/m -0,9 C -4,6 C 11,1 km/h (2 Bft)
23.12.2007 06:19 0,0 C 95 % 1021,5 hPa 0,0 l/m 11,1 km/h (2 Bft) W-SW 245 0 min 0 W/m -0,7 C -4,3 C 11,1 km/h (2 Bft)
23.12.2007 06:24 0,1 C 95 % 1021,5 hPa 0,0 l/m 11,1 km/h (2 Bft) W-SW 245 0 min 0 W/m -0,6 C -4,2 C 11,1 km/h (2 Bft)
23.12.2007 06:29 0,1 C 95 % 1021,5 hPa 0,0 l/m 11,1 km/h (2 Bft) W-SW 245 0 min 0 W/m -0,6 C -4,2 C 11,1 km/h (2 Bft)
23.12.2007 06:34 0,2 C 95 % 1021,5 hPa 0,0 l/m 11,1 km/h (2 Bft) W-SW 245 0 min 0 W/m -0,5 C -4,1 C 11,1 km/h (2 Bft)
23.12.2007 06:39 0,3 C 95 % 1021,5 hPa 0,0 l/m 11,1 km/h (2 Bft) W-SW 245 0 min 0 W/m -0,4 C -4,0 C 11,1 km/h (2 Bft)
23.12.2007 06:44 0,4 C 96 % 1021,5 hPa 0,0 l/m 11,1 km/h (2 Bft) W-SW 245 0 min 0 W/m -0,2 C -3,9 C 11,1 km/h (2 Bft)
23.12.2007 06:49 0,6 C 96 % 1021,5 hPa 0,0 l/m 11,1 km/h (2 Bft) W-SW 245 0 min 0 W/m 0,0 C -3,7 C 11,1 km/h (2 Bft)
23.12.2007 06:54 0,6 C 96 % 1021,5 hPa 0,0 l/m 11,1 km/h (2 Bft) W-SW 245 0 min 0 W/m 0,0 C -3,7 C 11,1 km/h (2 Bft)
23.12.2007 06:59 0,6 C 96 % 1021,5 hPa 0,0 l/m 11,1 km/h (2 Bft) W-SW 245 0 min 0 W/m 0,0 C -3,7 C 11,1 km/h (2 Bft)
23.12.2007 07:04 0,7 C 96 % 1021,5 hPa 0,0 l/m 11,1 km/h (2 Bft) W-SW 245 0 min 0 W/m 0,1 C -3,5 C 11,1 km/h (2 Bft)
23.12.2007 07:09 0,7 C 96 % 1021,5 hPa 0,0 l/m 11,1 km/h (2 Bft) W-SW 245 0 min 0 W/m 0,1 C -3,5 C 11,1 km/h (2 Bft)
23.12.2007 07:14 0,7 C 96 % 1021,5 hPa 0,0 l/m 11,1 km/h (2 Bft) W-SW 245 0 min 0 W/m 0,1 C -3,5 C 11,1 km/h (2 Bft)
23.12.2007 07:19 0,8 C 96 % 1021,5 hPa 0,0 l/m 16,1 km/h (3 Bft) W-SW 250 0 min 0 W/m 0,2 C -6,6 C 16,1 km/h (3 Bft)
23.12.2007 07:24 0,8 C 96 % 1021,5 hPa 0,0 l/m 15,8 km/h (3 Bft) W-SW 250 0 min 0 W/m 0,2 C -6,5 C 15,8 km/h (3 Bft)
23.12.2007 07:29 0,8 C 97 % 1021,5 hPa 0,0 l/m 16,7 km/h (3 Bft) W-SW 255 0 min 0 W/m 0,4 C -7,0 C 16,7 km/h (3 Bft)
23.12.2007 07:34 0,9 C 97 % 1021,5 hPa 0,0 l/m 15,4 km/h (3 Bft) W-SW 250 0 min 0 W/m 0,5 C -6,1 C 15,4 km/h (3 Bft)
23.12.2007 07:39 0,9 C 97 % 1021,5 hPa 0,0 l/m 22,4 km/h (4 Bft) W-SW 250 0 min 0 W/m 0,5 C -9,5 C 22,4 km/h (4 Bft)
23.12.2007 07:44 0,9 C 97 % 1021,5 hPa 0,0 l/m 22,8 km/h (4 Bft) W-SW 255 0 min 0 W/m 0,5 C -9,7 C 22,8 km/h (4 Bft)
23.12.2007 07:49 0,9 C 97 % 1021,5 hPa 0,0 l/m 19,3 km/h (3 Bft) W-SW 250 0 min 0 W/m 0,5 C -8,1 C 19,3 km/h (3 Bft)
23.12.2007 07:54 0,9 C 97 % 1021,5 hPa 0,0 l/m 22,3 km/h (4 Bft) W-SW 250 0 min 0 W/m 0,5 C -9,5 C 22,3 km/h (4 Bft)
23.12.2007 07:59 0,9 C 97 % 1021,5 hPa 0,0 l/m 18,1 km/h (3 Bft) W-SW 250 0 min 0 W/m 0,5 C -7,6 C 18,1 km/h (3 Bft)
23.12.2007 08:04 1,0 C 97 % 1021,5 hPa 0,0 l/m 17,4 km/h (3 Bft) W-SW 250 0 min 0 W/m 0,6 C -7,1 C 17,4 km/h (3 Bft)
23.12.2007 08:09 1,1 C 97 % 1021,5 hPa 0,0 l/m 20,7 km/h (4 Bft) W-SW 250 0 min 0 W/m 0,7 C -8,5 C 20,7 km/h (4 Bft)
23.12.2007 08:14 1,1 C 97 % 1021,5 hPa 0,0 l/m 18,2 km/h (3 Bft) W-SW 250 0 min 0 W/m 0,7 C -7,4 C 18,2 km/h (3 Bft)
23.12.2007 08:19 1,2 C 97 % 1021,5 hPa 0,0 l/m 14,9 km/h (3 Bft) W-SW 250 0 min 0 W/m 0,8 C -5,5 C 14,9 km/h (3 Bft)
23.12.2007 08:24 1,2 C 97 % 1021,5 hPa 0,0 l/m 14,9 km/h (3 Bft) W-SW 250 0 min 0 W/m 0,8 C -5,5 C 14,9 km/h (3 Bft)
23.12.2007 08:29 1,2 C 97 % 1021,5 hPa 0,0 l/m 14,2 km/h (3 Bft) W-SW 250 0 min 0 W/m 0,8 C -5,1 C 14,2 km/h (3 Bft)
23.12.2007 08:34 1,2 C 97 % 1021,5 hPa 0,0 l/m 13,7 km/h (3 Bft) W-SW 245 0 min 0 W/m 0,8 C -4,7 C 13,7 km/h (3 Bft)
23.12.2007 08:39 1,2 C 97 % 1021,5 hPa 0,0 l/m 14,7 km/h (3 Bft) W-SW 245 0 min 0 W/m 0,8 C -5,4 C 14,7 km/h (3 Bft)
23.12.2007 08:44 1,2 C 98 % 1021,5 hPa 0,0 l/m 14,8 km/h (3 Bft) W-SW 250 0 min 0 W/m 0,9 C -5,4 C 14,8 km/h (3 Bft)
23.12.2007 08:49 1,2 C 98 % 1022,5 hPa 0,0 l/m 13,0 km/h (3 Bft) W-SW 245 0 min 0 W/m 0,9 C -4,3 C 13,0 km/h (3 Bft)
23.12.2007 08:54 1,2 C 98 % 1022,5 hPa 0,0 l/m 13,0 km/h (3 Bft) W-SW 240 0 min 0 W/m 0,9 C -4,3 C 13,0 km/h (3 Bft)
23.12.2007 08:59 1,2 C 98 % 1022,5 hPa 0,0 l/m 14,6 km/h (3 Bft) W-SW 245 0 min 0 W/m 0,9 C -5,3 C 14,6 km/h (3 Bft)
23.12.2007 09:04 1,3 C 98 % 1022,5 hPa 0,0 l/m 17,6 km/h (3 Bft) W-SW 240 0 min 0 W/m 1,0 C -6,8 C 17,6 km/h (3 Bft)
23.12.2007 09:09 1,3 C 98 % 1022,5 hPa 0,0 l/m 17,1 km/h (3 Bft) W-SW 250 0 min 0 W/m 1,0 C -6,6 C 17,1 km/h (3 Bft)
23.12.2007 09:14 1,3 C 98 % 1022,5 hPa 0,3 l/m 15,6 km/h (3 Bft) W-SW 255 0 min 0 W/m 1,0 C -5,7 C 15,6 km/h (3 Bft)
23.12.2007 09:19 1,3 C 98 % 1022,5 hPa 0,0 l/m 14,4 km/h (3 Bft) W-SW 250 0 min 0 W/m 1,0 C -5,1 C 14,4 km/h (3 Bft)
23.12.2007 09:24 1,4 C 98 % 1022,5 hPa 0,0 l/m 15,5 km/h (3 Bft) W-SW 250 0 min 0 W/m 1,1 C -5,6 C 15,5 km/h (3 Bft)
23.12.2007 09:29 1,5 C 98 % 1022,5 hPa 0,0 l/m 13,5 km/h (3 Bft) W-SW 245 0 min 0 W/m 1,2 C -4,3 C 13,5 km/h (3 Bft)
23.12.2007 09:34 1,5 C 98 % 1022,5 hPa 0,0 l/m 13,5 km/h (3 Bft) W-SW 245 0 min 0 W/m 1,2 C -4,3 C 13,5 km/h (3 Bft)
23.12.2007 09:39 1,6 C 98 % 1022,5 hPa 0,0 l/m 14,1 km/h (3 Bft) W-SW 250 0 min 0 W/m 1,3 C -4,5 C 14,1 km/h (3 Bft)
23.12.2007 09:44 1,7 C 98 % 1022,5 hPa 0,0 l/m 11,8 km/h (2 Bft) W-SW 245 0 min 0 W/m 1,4 C -2,9 C 11,8 km/h (2 Bft)
23.12.2007 09:49 1,7 C 98 % 1022,5 hPa 0,0 l/m 12,1 km/h (2 Bft) W-SW 250 0 min 0 W/m 1,4 C -3,1 C 12,1 km/h (2 Bft)
23.12.2007 09:54 1,8 C 98 % 1022,5 hPa 0,0 l/m 14,4 km/h (3 Bft) W-SW 255 0 min 0 W/m 1,5 C -4,5 C 14,4 km/h (3 Bft)
23.12.2007 09:59 1,8 C 98 % 1022,5 hPa 0,0 l/m 13,9 km/h (3 Bft) W-SW 255 0 min 0 W/m 1,5 C -4,2 C 13,9 km/h (3 Bft)
23.12.2007 10:04 1,9 C 98 % 1022,5 hPa 0,0 l/m 13,2 km/h (3 Bft) W-SW 250 0 min 0 W/m 1,6 C -3,6 C 13,2 km/h (3 Bft)
23.12.2007 10:09 2,0 C 98 % 1022,5 hPa 0,0 l/m 14,8 km/h (3 Bft) W-SW 250 0 min 0 W/m 1,7 C -4,4 C 14,8 km/h (3 Bft)
23.12.2007 10:14 2,0 C 98 % 1022,5 hPa 0,0 l/m 17,1 km/h (3 Bft) W-SW 255 0 min 0 W/m 1,7 C -5,7 C 17,1 km/h (3 Bft)
23.12.2007 10:19 2,0 C 98 % 1022,5 hPa 0,0 l/m 12,0 km/h (2 Bft) W-SW 250 0 min 0 W/m 1,7 C -2,7 C 12,0 km/h (2 Bft)
23.12.2007 10:24 1,9 C 98 % 1022,5 hPa 0,0 l/m 11,3 km/h (2 Bft) W-SW 245 0 min 0 W/m 1,6 C -2,3 C 11,3 km/h (2 Bft)
23.12.2007 10:29 1,9 C 98 % 1022,5 hPa 0,0 l/m 10,7 km/h (2 Bft) W-SW 250 0 min 0 W/m 1,6 C -1,9 C 10,7 km/h (2 Bft)
23.12.2007 10:34 2,0 C 98 % 1022,5 hPa 0,0 l/m 11,0 km/h (2 Bft) W-SW 245 0 min 0 W/m 1,7 C -2,0 C 11,0 km/h (2 Bft)
23.12.2007 10:39 2,0 C 98 % 1022,5 hPa 0,0 l/m 12,1 km/h (2 Bft) W-SW 245 0 min 0 W/m 1,7 C -2,8 C 12,1 km/h (2 Bft)
23.12.2007 10:44 2,2 C 99 % 1022,5 hPa 0,0 l/m 11,6 km/h (2 Bft) W-SW 250 0 min 0 W/m 2,1 C -2,2 C 11,6 km/h (2 Bft)
23.12.2007 10:49 2,2 C 99 % 1022,5 hPa 0,0 l/m 11,6 km/h (2 Bft) W-SW 250 0 min 0 W/m 2,1 C -2,2 C 11,6 km/h (2 Bft)
23.12.2007 10:54 2,2 C 99 % 1022,5 hPa 0,0 l/m 9,9 km/h (2 Bft) W-SW 250 0 min 0 W/m 2,1 C -0,9 C 9,9 km/h (2 Bft)
23.12.2007 10:59 2,3 C 99 % 1023,5 hPa 0,0 l/m 9,2 km/h (2 Bft) W-SW 245 0 min 0 W/m 2,2 C -0,3 C 9,2 km/h (2 Bft)
23.12.2007 11:04 2,3 C 99 % 1023,5 hPa 0,0 l/m 9,4 km/h (2 Bft) W-SW 250 0 min 0 W/m 2,2 C -0,4 C 9,4 km/h (2 Bft)
23.12.2007 11:09 2,4 C 99 % 1023,5 hPa 0,0 l/m 13,3 km/h (3 Bft) W-SW 250 0 min 0 W/m 2,3 C -3,1 C 13,3 km/h (3 Bft)
23.12.2007 11:14 2,5 C 99 % 1023,5 hPa 0,0 l/m 13,9 km/h (3 Bft) W-SW 255 0 min 0 W/m 2,4 C -3,3 C 13,9 km/h (3 Bft)
23.12.2007 11:19 2,6 C 99 % 1023,5 hPa 0,3 l/m 14,6 km/h (3 Bft) W-SW 255 0 min 0 W/m 2,5 C -3,6 C 14,6 km/h (3 Bft)
23.12.2007 11:24 2,6 C 99 % 1022,5 hPa 0,0 l/m 11,3 km/h (2 Bft) W-SW 255 0 min 0 W/m 2,5 C -1,5 C 11,3 km/h (2 Bft)
23.12.2007 11:29 2,6 C 99 % 1022,5 hPa 0,0 l/m 8,0 km/h (2 Bft) W-SW 250 0 min 0 W/m 2,5 C 1,1 C 8,0 km/h (2 Bft)
23.12.2007 11:34 2,7 C 99 % 1022,5 hPa 0,3 l/m 9,2 km/h (2 Bft) W 260 0 min 0 W/m 2,6 C 0,2 C 9,2 km/h (2 Bft)
23.12.2007 11:39 2,7 C 99 % 1022,5 hPa 0,0 l/m 10,0 km/h (2 Bft) W 260 0 min 0 W/m 2,6 C -0,5 C 10,0 km/h (2 Bft)
23.12.2007 11:44 2,9 C 99 % 1022,5 hPa 0,3 l/m 10,3 km/h (2 Bft) W 260 0 min 0 W/m 2,8 C -0,5 C 10,3 km/h (2 Bft)
23.12.2007 11:49 3,0 C 99 % 1022,5 hPa 0,0 l/m 9,2 km/h (2 Bft) W 260 0 min 0 W/m 2,9 C 0,5 C 9,2 km/h (2 Bft)
23.12.2007 11:54 3,0 C 99 % 1022,5 hPa 0,0 l/m 8,0 km/h (2 Bft) W 260 0 min 0 W/m 2,9 C 1,5 C 8,0 km/h (2 Bft)
23.12.2007 11:59 3,1 C 99 % 1022,5 hPa 0,0 l/m 7,2 km/h (2 Bft) W-SW 255 0 min 0 W/m 3,0 C 2,3 C 7,2 km/h (2 Bft)
23.12.2007 12:04 3,1 C 99 % 1022,5 hPa 0,0 l/m 7,0 km/h (2 Bft) W 260 0 min 0 W/m 3,0 C 2,5 C 7,0 km/h (2 Bft)
23.12.2007 12:09 3,2 C 99 % 1022,5 hPa 0,0 l/m 3,9 km/h (1 Bft) W-SW 255 0 min 0 W/m 3,1 C 3,2 C 3,9 km/h (1 Bft)
23.12.2007 12:14 3,2 C 99 % 1022,5 hPa 0,0 l/m 4,6 km/h (1 Bft) W-SW 255 0 min 0 W/m 3,1 C 3,2 C 4,6 km/h (1 Bft)
23.12.2007 12:19 3,2 C 99 % 1022,5 hPa 0,0 l/m 4,5 km/h (1 Bft) W-NW 285 0 min 0 W/m 3,1 C 3,2 C 4,5 km/h (1 Bft)
23.12.2007 12:24 3,5 C 99 % 1022,5 hPa 0,0 l/m 7,6 km/h (2 Bft) NW 320 0 min 0 W/m 3,4 C 2,4 C 7,6 km/h (2 Bft)
23.12.2007 12:29 3,9 C 99 % 1022,5 hPa 0,0 l/m 10,8 km/h (2 Bft) N-NW 330 0 min 0 W/m 3,8 C 0,3 C 10,8 km/h (2 Bft)
23.12.2007 12:34 4,5 C 99 % 1022,5 hPa 0,0 l/m 16,6 km/h (3 Bft) N 5 0 min 0 W/m 4,4 C -2,3 C 16,6 km/h (3 Bft)
23.12.2007 12:39 5,1 C 99 % 1022,5 hPa 0,0 l/m 16,4 km/h (3 Bft) N 355 0 min 0 W/m 5,0 C -1,5 C 16,4 km/h (3 Bft)
23.12.2007 12:44 5,2 C 99 % 1022,5 hPa 0,0 l/m 20,0 km/h (4 Bft) N 360 0 min 0 W/m 5,1 C -2,9 C 20,0 km/h (4 Bft)
23.12.2007 12:49 5,5 C 99 % 1022,5 hPa 0,0 l/m 17,0 km/h (3 Bft) N 5 0 min 0 W/m 5,4 C -1,3 C 17,0 km/h (3 Bft)
23.12.2007 12:54 5,5 C 99 % 1022,5 hPa 0,0 l/m 16,1 km/h (3 Bft) N 5 0 min 0 W/m 5,4 C -0,9 C 16,1 km/h (3 Bft)
23.12.2007 12:59 5,6 C 99 % 1022,5 hPa 0,0 l/m 19,8 km/h (3 Bft) N 360 0 min 0 W/m 5,5 C -2,3 C 19,8 km/h (3 Bft)
23.12.2007 13:04 5,6 C 99 % 1022,5 hPa 0,0 l/m 15,9 km/h (3 Bft) N 360 0 min 0 W/m 5,5 C -0,6 C 15,9 km/h (3 Bft)
23.12.2007 13:09 5,6 C 99 % 1022,5 hPa 0,0 l/m 15,2 km/h (3 Bft) N 360 0 min 0 W/m 5,5 C -0,3 C 15,2 km/h (3 Bft)
23.12.2007 13:14 5,7 C 99 % 1022,5 hPa 0,0 l/m 17,7 km/h (3 Bft) N 355 0 min 0 W/m 5,6 C -1,3 C 17,7 km/h (3 Bft)
23.12.2007 13:19 5,7 C 99 % 1022,5 hPa 0,0 l/m 17,3 km/h (3 Bft) N 360 0 min 0 W/m 5,6 C -1,2 C 17,3 km/h (3 Bft)
23.12.2007 13:24 5,6 C 99 % 1022,5 hPa 0,0 l/m 20,6 km/h (4 Bft) N-NW 345 0 min 0 W/m 5,5 C -2,6 C 20,6 km/h (4 Bft)
23.12.2007 13:29 5,7 C 99 % 1022,5 hPa 0,0 l/m 19,5 km/h (3 Bft) N 5 0 min 0 W/m 5,6 C -2,1 C 19,5 km/h (3 Bft)
23.12.2007 13:34 5,7 C 99 % 1023,5 hPa 0,0 l/m 17,3 km/h (3 Bft) N 350 0 min 0 W/m 5,6 C -1,2 C 17,3 km/h (3 Bft)
23.12.2007 13:39 5,7 C 99 % 1023,5 hPa 0,0 l/m 18,8 km/h (3 Bft) N 360 0 min 0 W/m 5,6 C -1,8 C 18,8 km/h (3 Bft)
23.12.2007 13:44 5,6 C 99 % 1023,5 hPa 0,0 l/m 18,6 km/h (3 Bft) N 360 0 min 0 W/m 5,5 C -1,8 C 18,6 km/h (3 Bft)
23.12.2007 13:49 5,6 C 99 % 1023,5 hPa 0,0 l/m 19,4 km/h (3 Bft) N 360 0 min 0 W/m 5,5 C -2,2 C 19,4 km/h (3 Bft)
23.12.2007 13:54 5,6 C 99 % 1023,5 hPa 0,0 l/m 22,6 km/h (4 Bft) N 360 0 min 0 W/m 5,5 C -3,3 C 22,6 km/h (4 Bft)
23.12.2007 13:59 5,6 C 99 % 1023,5 hPa 0,0 l/m 23,4 km/h (4 Bft) N 10 0 min 0 W/m 5,5 C -3,6 C 23,4 km/h (4 Bft)
23.12.2007 14:04 5,6 C 99 % 1023,5 hPa 0,0 l/m 20,8 km/h (4 Bft) N 5 0 min 0 W/m 5,5 C -2,7 C 20,8 km/h (4 Bft)
23.12.2007 14:09 5,6 C 99 % 1023,5 hPa 0,0 l/m 15,4 km/h (3 Bft) N 355 0 min 0 W/m 5,5 C -0,4 C 15,4 km/h (3 Bft)
23.12.2007 14:14 5,6 C 99 % 1023,5 hPa 0,0 l/m 18,8 km/h (3 Bft) N 360 0 min 0 W/m 5,5 C -1,9 C 18,8 km/h (3 Bft)
23.12.2007 14:19 5,6 C 99 % 1023,5 hPa 0,0 l/m 19,1 km/h (3 Bft) N 360 0 min 0 W/m 5,5 C -2,0 C 19,1 km/h (3 Bft)
23.12.2007 14:24 5,7 C 99 % 1023,5 hPa 0,0 l/m 20,6 km/h (4 Bft) N 355 0 min 0 W/m 5,6 C -2,5 C 20,6 km/h (4 Bft)
23.12.2007 14:29 5,6 C 99 % 1023,5 hPa 0,0 l/m 19,8 km/h (3 Bft) N-NO 15 0 min 0 W/m 5,5 C -2,3 C 19,8 km/h (3 Bft)
23.12.2007 14:34 5,6 C 99 % 1023,5 hPa 0,0 l/m 20,3 km/h (4 Bft) N 350 0 min 0 W/m 5,5 C -2,5 C 20,3 km/h (4 Bft)
23.12.2007 14:39 5,6 C 99 % 1023,5 hPa 0,0 l/m 18,0 km/h (3 Bft) N 5 0 min 0 W/m 5,5 C -1,6 C 18,0 km/h (3 Bft)
23.12.2007 14:44 5,6 C 99 % 1023,5 hPa 0,0 l/m 23,5 km/h (4 Bft) N 5 0 min 0 W/m 5,5 C -3,6 C 23,5 km/h (4 Bft)
23.12.2007 14:49 5,6 C 98 % 1023,5 hPa 0,0 l/m 21,4 km/h (4 Bft) N 10 0 min 0 W/m 5,3 C -2,9 C 21,4 km/h (4 Bft)
23.12.2007 14:54 5,6 C 98 % 1023,5 hPa 0,0 l/m 22,6 km/h (4 Bft) N-NO 15 0 min 0 W/m 5,3 C -3,3 C 22,6 km/h (4 Bft)
23.12.2007 14:59 5,5 C 98 % 1023,5 hPa 0,0 l/m 20,6 km/h (4 Bft) N 360 0 min 0 W/m 5,2 C -2,8 C 20,6 km/h (4 Bft)
23.12.2007 15:04 5,4 C 98 % 1023,5 hPa 0,0 l/m 17,9 km/h (3 Bft) N 10 0 min 0 W/m 5,1 C -1,8 C 17,9 km/h (3 Bft)
23.12.2007 15:09 5,4 C 98 % 1023,5 hPa 0,0 l/m 15,2 km/h (3 Bft) N-NO 15 0 min 0 W/m 5,1 C -0,5 C 15,2 km/h (3 Bft)
23.12.2007 15:14 5,4 C 98 % 1023,5 hPa 0,0 l/m 18,0 km/h (3 Bft) N 10 0 min 0 W/m 5,1 C -1,8 C 18,0 km/h (3 Bft)
23.12.2007 15:19 5,4 C 98 % 1023,5 hPa 0,0 l/m 16,3 km/h (3 Bft) N 10 0 min 0 W/m 5,1 C -1,1 C 16,3 km/h (3 Bft)
23.12.2007 15:24 5,3 C 98 % 1023,5 hPa 0,0 l/m 16,3 km/h (3 Bft) N 5 0 min 0 W/m 5,0 C -1,2 C 16,3 km/h (3 Bft)
23.12.2007 15:29 5,3 C 98 % 1023,5 hPa 0,0 l/m 16,3 km/h (3 Bft) N 5 0 min 0 W/m 5,0 C -1,2 C 16,3 km/h (3 Bft)
23.12.2007 15:34 5,2 C 98 % 1023,5 hPa 0,0 l/m 14,3 km/h (3 Bft) N-NO 15 0 min 0 W/m 4,9 C -0,3 C 14,3 km/h (3 Bft)
23.12.2007 15:39 5,1 C 98 % 1023,5 hPa 0,0 l/m 14,6 km/h (3 Bft) N-NO 20 0 min 0 W/m 4,8 C -0,6 C 14,6 km/h (3 Bft)
23.12.2007 15:44 4,9 C 97 % 1023,5 hPa 0,0 l/m 14,6 km/h (3 Bft) N-NO 15 0 min 0 W/m 4,5 C -0,8 C 14,6 km/h (3 Bft)
23.12.2007 15:49 4,9 C 97 % 1023,5 hPa 0,0 l/m 15,6 km/h (3 Bft) N-NO 15 0 min 0 W/m 4,5 C -1,3 C 15,6 km/h (3 Bft)
23.12.2007 15:54 4,7 C 97 % 1023,5 hPa 0,0 l/m 13,8 km/h (3 Bft) N-NO 20 0 min 0 W/m 4,3 C -0,6 C 13,8 km/h (3 Bft)
23.12.2007 15:59 4,7 C 97 % 1024,5 hPa 0,0 l/m 13,6 km/h (3 Bft) N 10 0 min 0 W/m 4,3 C -0,5 C 13,6 km/h (3 Bft)
23.12.2007 16:04 4,5 C 97 % 1024,5 hPa 0,0 l/m 12,0 km/h (2 Bft) N-NO 25 0 min 0 W/m 4,1 C 0,2 C 12,0 km/h (2 Bft)
23.12.2007 16:09 4,4 C 97 % 1024,5 hPa 0,0 l/m 15,3 km/h (3 Bft) N 10 0 min 0 W/m 4,0 C -1,8 C 15,3 km/h (3 Bft)
23.12.2007 16:14 4,4 C 97 % 1024,5 hPa 0,0 l/m 18,8 km/h (3 Bft) N 5 0 min 0 W/m 4,0 C -3,4 C 18,8 km/h (3 Bft)
23.12.2007 16:19 4,3 C 97 % 1024,5 hPa 0,0 l/m 12,7 km/h (3 Bft) N 355 0 min 0 W/m 3,9 C -0,5 C 12,7 km/h (3 Bft)
23.12.2007 16:24 4,3 C 97 % 1024,5 hPa 0,0 l/m 13,4 km/h (3 Bft) N 10 0 min 0 W/m 3,9 C -0,9 C 13,4 km/h (3 Bft)
23.12.2007 16:29 4,3 C 97 % 1024,5 hPa 0,0 l/m 9,8 km/h (2 Bft) N 5 0 min 0 W/m 3,9 C 1,4 C 9,8 km/h (2 Bft)
23.12.2007 16:34 4,3 C 97 % 1024,5 hPa 0,0 l/m 12,9 km/h (3 Bft) N-NO 15 0 min 0 W/m 3,9 C -0,6 C 12,9 km/h (3 Bft)
23.12.2007 16:39 4,3 C 97 % 1024,5 hPa 0,0 l/m 8,0 km/h (2 Bft) N-NO 15 0 min 0 W/m 3,9 C 2,9 C 8,0 km/h (2 Bft)
23.12.2007 16:44 4,1 C 96 % 1024,5 hPa 0,0 l/m 7,8 km/h (2 Bft) N 10 0 min 0 W/m 3,5 C 2,8 C 7,8 km/h (2 Bft)
23.12.2007 16:49 4,0 C 96 % 1024,5 hPa 0,0 l/m 6,7 km/h (2 Bft) N-NO 15 0 min 0 W/m 3,4 C 3,7 C 6,7 km/h (2 Bft)
23.12.2007 16:54 3,8 C 96 % 1024,5 hPa 0,0 l/m 3,1 km/h (1 Bft) N 5 0 min 0 W/m 3,2 C 3,8 C 3,1 km/h (1 Bft)
23.12.2007 16:59 3,6 C 96 % 1024,5 hPa 0,0 l/m 1,7 km/h (1 Bft) N 5 0 min 0 W/m 3,0 C 3,6 C 1,7 km/h (1 Bft)
23.12.2007 17:04 3,5 C 96 % 1024,5 hPa 0,0 l/m 3,4 km/h (1 Bft) N 355 0 min 0 W/m 2,9 C 3,5 C 3,4 km/h (1 Bft)
23.12.2007 17:09 3,4 C 96 % 1024,5 hPa 0,0 l/m 0,3 km/h (0 Bft) N 355 0 min 0 W/m 2,8 C 3,4 C 0,3 km/h (0 Bft)
23.12.2007 17:14 3,2 C 96 % 1024,5 hPa 0,0 l/m 0,0 km/h (0 Bft) N 355 0 min 0 W/m 2,6 C 3,2 C 0,0 km/h (0 Bft)
23.12.2007 17:19 3,1 C 96 % 1024,5 hPa 0,0 l/m 0,0 km/h (0 Bft) N 355 0 min 0 W/m 2,5 C 3,1 C 0,0 km/h (0 Bft)
23.12.2007 17:24 3,0 C 96 % 1024,5 hPa 0,0 l/m 0,0 km/h (0 Bft) N 355 0 min 0 W/m 2,4 C 3,0 C 0,0 km/h (0 Bft)
23.12.2007 17:29 2,7 C 96 % 1024,5 hPa 0,0 l/m 0,4 km/h (0 Bft) N 355 0 min 0 W/m 2,1 C 2,7 C 0,4 km/h (0 Bft)
23.12.2007 17:34 2,7 C 97 % 1024,5 hPa 0,0 l/m 0,9 km/h (0 Bft) N 355 0 min 0 W/m 2,3 C 2,7 C 0,9 km/h (0 Bft)
23.12.2007 17:39 2,7 C 97 % 1024,5 hPa 0,0 l/m 2,7 km/h (1 Bft) N 355 0 min 0 W/m 2,3 C 2,7 C 2,7 km/h (1 Bft)
23.12.2007 17:44 2,9 C 97 % 1024,5 hPa 0,0 l/m 2,7 km/h (1 Bft) N 355 0 min 0 W/m 2,5 C 2,9 C 2,7 km/h (1 Bft)
23.12.2007 17:49 2,7 C 97 % 1024,5 hPa 0,0 l/m 2,7 km/h (1 Bft) N 355 0 min 0 W/m 2,3 C 2,7 C 2,7 km/h (1 Bft)
23.12.2007 17:54 2,7 C 97 % 1024,5 hPa 0,0 l/m 0,2 km/h (0 Bft) N 355 0 min 0 W/m 2,3 C 2,7 C 0,2 km/h (0 Bft)
23.12.2007 17:59 2,5 C 96 % 1024,5 hPa 0,0 l/m 0,1 km/h (0 Bft) N 355 0 min 0 W/m 1,9 C 2,5 C 0,1 km/h (0 Bft)
23.12.2007 18:04 2,2 C 96 % 1024,5 hPa 0,0 l/m 0,1 km/h (0 Bft) N 355 0 min 0 W/m 1,6 C 2,2 C 0,1 km/h (0 Bft)
23.12.2007 18:09 1,9 C 96 % 1024,5 hPa 0,0 l/m 0,1 km/h (0 Bft) N 355 0 min 0 W/m 1,3 C 1,9 C 0,1 km/h (0 Bft)
23.12.2007 18:14 1,9 C 96 % 1024,5 hPa 0,0 l/m 0,0 km/h (0 Bft) N 355 0 min 0 W/m 1,3 C 1,9 C 0,0 km/h (0 Bft)
23.12.2007 18:19 1,7 C 97 % 1024,5 hPa 0,0 l/m 0,0 km/h (0 Bft) N 355 0 min 0 W/m 1,3 C 1,7 C 0,0 km/h (0 Bft)
23.12.2007 18:24 1,6 C 97 % 1024,5 hPa 0,0 l/m 0,0 km/h (0 Bft) N 355 0 min 0 W/m 1,2 C 1,6 C 0,0 km/h (0 Bft)
23.12.2007 18:29 1,5 C 97 % 1024,5 hPa 0,0 l/m 0,0 km/h (0 Bft) N 355 0 min 0 W/m 1,1 C 1,5 C 0,0 km/h (0 Bft)
23.12.2007 18:34 1,4 C 97 % 1024,5 hPa 0,0 l/m 0,0 km/h (0 Bft) N 355 0 min 0 W/m 1,0 C 1,4 C 0,0 km/h (0 Bft)
23.12.2007 18:39 1,2 C 96 % 1024,5 hPa 0,0 l/m 0,0 km/h (0 Bft) N 355 0 min 0 W/m 0,6 C 1,2 C 0,0 km/h (0 Bft)
23.12.2007 18:44 1,2 C 96 % 1025,5 hPa 0,0 l/m 0,0 km/h (0 Bft) N 355 0 min 0 W/m 0,6 C 1,2 C 0,0 km/h (0 Bft)
23.12.2007 18:49 1,2 C 96 % 1025,5 hPa 0,0 l/m 0,0 km/h (0 Bft) N 355 0 min 0 W/m 0,6 C 1,2 C 0,0 km/h (0 Bft)
23.12.2007 18:54 1,2 C 96 % 1025,5 hPa 0,0 l/m 0,0 km/h (0 Bft) N 355 0 min 0 W/m 0,6 C 1,2 C 0,0 km/h (0 Bft)
23.12.2007 18:59 1,2 C 96 % 1025,5 hPa 0,0 l/m 0,0 km/h (0 Bft) N 355 0 min 0 W/m 0,6 C 1,2 C 0,0 km/h (0 Bft)
23.12.2007 19:04 1,2 C 96 % 1025,5 hPa 0,0 l/m 0,0 km/h (0 Bft) N 355 0 min 0 W/m 0,6 C 1,2 C 0,0 km/h (0 Bft)
23.12.2007 19:09 1,2 C 96 % 1025,5 hPa 0,0 l/m 0,0 km/h (0 Bft) N 355 0 min 0 W/m 0,6 C 1,2 C 0,0 km/h (0 Bft)
23.12.2007 19:14 1,1 C 96 % 1025,5 hPa 0,0 l/m 0,0 km/h (0 Bft) N 355 0 min 0 W/m 0,5 C 1,1 C 0,0 km/h (0 Bft)
23.12.2007 19:19 1,0 C 96 % 1025,5 hPa 0,0 l/m 0,0 km/h (0 Bft) N 355 0 min 0 W/m 0,4 C 1,0 C 0,0 km/h (0 Bft)
23.12.2007 19:24 0,9 C 96 % 1025,5 hPa 0,0 l/m 0,0 km/h (0 Bft) N 355 0 min 0 W/m 0,3 C 0,9 C 0,0 km/h (0 Bft)
23.12.2007 19:29 0,8 C 96 % 1025,5 hPa 0,0 l/m 0,0 km/h (0 Bft) N 355 0 min 0 W/m 0,2 C 0,8 C 0,0 km/h (0 Bft)
23.12.2007 19:34 0,7 C 96 % 1025,5 hPa 0,0 l/m 0,4 km/h (0 Bft) N 355 0 min 0 W/m 0,1 C 0,7 C 0,4 km/h (0 Bft)
23.12.2007 19:39 0,7 C 96 % 1025,5 hPa 0,0 l/m 0,0 km/h (0 Bft) N 355 0 min 0 W/m 0,1 C 0,7 C 0,0 km/h (0 Bft)
23.12.2007 19:44 0,6 C 96 % 1025,5 hPa 0,0 l/m 0,6 km/h (0 Bft) N 355 0 min 0 W/m 0,0 C 0,6 C 0,6 km/h (0 Bft)
23.12.2007 19:49 0,6 C 96 % 1025,5 hPa 0,0 l/m 0,1 km/h (0 Bft) N 355 0 min 0 W/m 0,0 C 0,6 C 0,1 km/h (0 Bft)
23.12.2007 19:54 0,5 C 96 % 1025,5 hPa 0,0 l/m 0,0 km/h (0 Bft) N 355 0 min 0 W/m -0,1 C 0,5 C 0,0 km/h (0 Bft)
23.12.2007 19:59 0,6 C 96 % 1025,5 hPa 0,0 l/m 0,0 km/h (0 Bft) N 355 0 min 0 W/m 0,0 C 0,6 C 0,0 km/h (0 Bft)
23.12.2007 20:04 0,6 C 96 % 1025,5 hPa 0,0 l/m 0,0 km/h (0 Bft) N 355 0 min 0 W/m 0,0 C 0,6 C 0,0 km/h (0 Bft)
23.12.2007 20:09 0,7 C 97 % 1025,5 hPa 0,0 l/m 0,0 km/h (0 Bft) N 355 0 min 0 W/m 0,3 C 0,7 C 0,0 km/h (0 Bft)
23.12.2007 20:14 0,7 C 97 % 1025,5 hPa 0,0 l/m 0,0 km/h (0 Bft) N 355 0 min 0 W/m 0,3 C 0,7 C 0,0 km/h (0 Bft)
23.12.2007 20:19 0,7 C 96 % 1025,5 hPa 0,0 l/m 0,0 km/h (0 Bft) N 355 0 min 0 W/m 0,1 C 0,7 C 0,0 km/h (0 Bft)
23.12.2007 20:24 0,7 C 96 % 1025,5 hPa 0,0 l/m 0,0 km/h (0 Bft) N 355 0 min 0 W/m 0,1 C 0,7 C 0,0 km/h (0 Bft)
23.12.2007 20:29 0,7 C 96 % 1025,5 hPa 0,0 l/m 0,0 km/h (0 Bft) N 355 0 min 0 W/m 0,1 C 0,7 C 0,0 km/h (0 Bft)
23.12.2007 20:34 0,7 C 96 % 1025,5 hPa 0,0 l/m 0,0 km/h (0 Bft) N 355 0 min 0 W/m 0,1 C 0,7 C 0,0 km/h (0 Bft)
23.12.2007 20:39 0,7 C 96 % 1025,5 hPa 0,0 l/m 0,0 km/h (0 Bft) N 355 0 min 0 W/m 0,1 C 0,7 C 0,0 km/h (0 Bft)
23.12.2007 20:44 0,7 C 96 % 1025,5 hPa 0,0 l/m 0,0 km/h (0 Bft) N 355 0 min 0 W/m 0,1 C 0,7 C 0,0 km/h (0 Bft)
23.12.2007 20:49 0,7 C 96 % 1025,5 hPa 0,0 l/m 0,0 km/h (0 Bft) N 355 0 min 0 W/m 0,1 C 0,7 C 0,0 km/h (0 Bft)
23.12.2007 20:54 0,7 C 96 % 1025,5 hPa 0,0 l/m 0,0 km/h (0 Bft) N 355 0 min 0 W/m 0,1 C 0,7 C 0,0 km/h (0 Bft)
23.12.2007 20:59 0,6 C 96 % 1025,5 hPa 0,0 l/m 0,0 km/h (0 Bft) N 355 0 min 0 W/m 0,0 C 0,6 C 0,0 km/h (0 Bft)
23.12.2007 21:04 0,6 C 96 % 1025,5 hPa 0,0 l/m 0,0 km/h (0 Bft) N 355 0 min 0 W/m 0,0 C 0,6 C 0,0 km/h (0 Bft)
23.12.2007 21:09 0,6 C 96 % 1025,5 hPa 0,0 l/m 0,0 km/h (0 Bft) N 355 0 min 0 W/m 0,0 C 0,6 C 0,0 km/h (0 Bft)
23.12.2007 21:14 0,5 C 96 % 1025,5 hPa 0,0 l/m 0,0 km/h (0 Bft) N 355 0 min 0 W/m -0,1 C 0,5 C 0,0 km/h (0 Bft)
23.12.2007 21:19 0,5 C 96 % 1025,5 hPa 0,0 l/m 0,0 km/h (0 Bft) N 355 0 min 0 W/m -0,1 C 0,5 C 0,0 km/h (0 Bft)
23.12.2007 21:24 0,3 C 96 % 1025,5 hPa 0,0 l/m 0,0 km/h (0 Bft) N 355 0 min 0 W/m -0,3 C 0,3 C 0,0 km/h (0 Bft)
23.12.2007 21:29 0,4 C 96 % 1025,5 hPa 0,0 l/m 0,0 km/h (0 Bft) N 355 0 min 0 W/m -0,2 C 0,4 C 0,0 km/h (0 Bft)
23.12.2007 21:34 0,3 C 97 % 1025,5 hPa 0,0 l/m 0,0 km/h (0 Bft) N 355 0 min 0 W/m -0,1 C 0,3 C 0,0 km/h (0 Bft)
23.12.2007 21:39 0,3 C 96 % 1025,5 hPa 0,0 l/m 0,0 km/h (0 Bft) N 355 0 min 0 W/m -0,3 C 0,3 C 0,0 km/h (0 Bft)
23.12.2007 21:44 0,3 C 97 % 1025,5 hPa 0,0 l/m 0,0 km/h (0 Bft) N 355 0 min 0 W/m -0,1 C 0,3 C 0,0 km/h (0 Bft)
23.12.2007 21:49 0,2 C 97 % 1025,5 hPa 0,0 l/m 0,0 km/h (0 Bft) N 355 0 min 0 W/m -0,2 C 0,2 C 0,0 km/h (0 Bft)
23.12.2007 21:54 0,1 C 97 % 1025,5 hPa 0,0 l/m 0,0 km/h (0 Bft) N 355 0 min 0 W/m -0,3 C 0,1 C 0,0 km/h (0 Bft)
23.12.2007 22:00 0,1 C 97 % 1025,5 hPa 0,0 l/m 0,0 km/h (0 Bft) N 355 0 min 0 W/m -0,3 C 0,1 C 0,0 km/h (0 Bft)
23.12.2007 22:05 0,1 C 97 % 1025,5 hPa 0,0 l/m 2,7 km/h (1 Bft) N 355 0 min 0 W/m -0,3 C 0,1 C 2,7 km/h (1 Bft)
23.12.2007 22:10 0,1 C 97 % 1025,5 hPa 0,0 l/m 0,0 km/h (0 Bft) N 355 0 min 0 W/m -0,3 C 0,1 C 0,0 km/h (0 Bft)
23.12.2007 22:15 0,0 C 97 % 1025,5 hPa 0,0 l/m 0,0 km/h (0 Bft) N 355 0 min 0 W/m -0,4 C 0,0 C 0,0 km/h (0 Bft)
23.12.2007 22:20 0,0 C 97 % 1025,5 hPa 0,0 l/m 0,0 km/h (0 Bft) N 355 0 min 0 W/m -0,4 C 0,0 C 0,0 km/h (0 Bft)
23.12.2007 22:25 0,0 C 97 % 1025,5 hPa 0,0 l/m 0,0 km/h (0 Bft) N 355 0 min 0 W/m -0,4 C 0,0 C 0,0 km/h (0 Bft)
23.12.2007 22:30 0,1 C 97 % 1025,5 hPa 0,0 l/m 0,0 km/h (0 Bft) N 355 0 min 0 W/m -0,3 C 0,1 C 0,0 km/h (0 Bft)
23.12.2007 22:35 0,1 C 97 % 1025,5 hPa 0,0 l/m 0,0 km/h (0 Bft) N 355 0 min 0 W/m -0,3 C 0,1 C 0,0 km/h (0 Bft)
23.12.2007 22:40 -0,2 C 97 % 1025,5 hPa 0,0 l/m 0,0 km/h (0 Bft) N 355 0 min 0 W/m -0,6 C -0,2 C 0,0 km/h (0 Bft)
23.12.2007 22:45 -0,2 C 97 % 1025,5 hPa 0,0 l/m 2,7 km/h (1 Bft) N 355 0 min 0 W/m -0,6 C -0,2 C 2,7 km/h (1 Bft)
23.12.2007 22:50 0,0 C 97 % 1025,5 hPa 0,0 l/m 2,7 km/h (1 Bft) N 355 0 min 0 W/m -0,4 C 0,0 C 2,7 km/h (1 Bft)
23.12.2007 22:55 -0,2 C 97 % 1025,5 hPa 0,0 l/m 0,0 km/h (0 Bft) N 355 0 min 0 W/m -0,6 C -0,2 C 0,0 km/h (0 Bft)
23.12.2007 23:00 -0,2 C 97 % 1025,5 hPa 0,0 l/m 0,0 km/h (0 Bft) N 355 0 min 0 W/m -0,6 C -0,2 C 0,0 km/h (0 Bft)
23.12.2007 23:05 -0,2 C 97 % 1025,5 hPa 0,0 l/m 0,0 km/h (0 Bft) N 355 0 min 0 W/m -0,6 C -0,2 C 0,0 km/h (0 Bft)
23.12.2007 23:10 0,0 C 97 % 1025,5 hPa 0,0 l/m 0,0 km/h (0 Bft) N 355 0 min 0 W/m -0,4 C 0,0 C 0,0 km/h (0 Bft)
23.12.2007 23:15 0,0 C 97 % 1025,5 hPa 0,0 l/m 0,0 km/h (0 Bft) N 355 0 min 0 W/m -0,4 C 0,0 C 0,0 km/h (0 Bft)
23.12.2007 23:20 0,0 C 97 % 1025,5 hPa 0,0 l/m 4,8 km/h (1 Bft) N 355 0 min 0 W/m -0,4 C 0,0 C 4,8 km/h (1 Bft)
23.12.2007 23:25 0,0 C 97 % 1025,5 hPa 0,0 l/m 0,0 km/h (0 Bft) N 355 0 min 0 W/m -0,4 C 0,0 C 0,0 km/h (0 Bft)
23.12.2007 23:30 -0,2 C 97 % 1025,5 hPa 0,0 l/m 2,7 km/h (1 Bft) N 355 0 min 0 W/m -0,6 C -0,2 C 2,7 km/h (1 Bft)
23.12.2007 23:35 -0,2 C 97 % 1025,5 hPa 0,0 l/m 2,8 km/h (1 Bft) N 355 0 min 0 W/m -0,6 C -0,2 C 2,8 km/h (1 Bft)
23.12.2007 23:40 -0,2 C 97 % 1025,5 hPa 0,0 l/m 3,6 km/h (1 Bft) N 355 0 min 0 W/m -0,6 C -0,2 C 3,6 km/h (1 Bft)
23.12.2007 23:45 -0,2 C 97 % 1025,5 hPa 0,0 l/m 2,7 km/h (1 Bft) N 355 0 min 0 W/m -0,6 C -0,2 C 2,7 km/h (1 Bft)
23.12.2007 23:50 -0,2 C 97 % 1025,5 hPa 0,0 l/m 0,0 km/h (0 Bft) N 355 0 min 0 W/m -0,6 C -0,2 C 0,0 km/h (0 Bft)
23.12.2007 23:55 -0,2 C 97 % 1025,5 hPa 0,0 l/m 0,0 km/h (0 Bft) N 355 0 min 0 W/m -0,6 C -0,2 C 0,0 km/h (0 Bft)
_ Min-Zeit 01:44 04:34 02:44 - 00:04 - - - - 01:44 07:44 00:04
Minimum _ -2,4 C 93 % 1021,5 hPa - 0,0 km/h (0 Bft) - - - - -3,1 C -9,7 C 0,0 km/h (0 Bft)
_ Max-Zeit 13:14 10:44 18:44 09:14 14:44 - - 00:04 00:04 13:14 16:54 14:44
Maximum _ 5,7 C 99 % 1025,5 hPa 0,3 l/m 23,5 km/h
N (4 Bft)
- - 0 min 0 W/m 5,6 C 3,8 C 23,5 km/h
N (4 Bft)
Durchschnitt _ 1,2 C 97 % 1023,3 hPa #1,2 l/m 8,5 km/h (2 Bft) W-SW - #0 min. 0 W/m 0,7 C -1,9 C 8,5 km/h (2 Bft)
copyright by Holger Just